createdAt,value
2022-08-20T00:01:04.318Z,20.40
2022-08-20T00:03:35.765Z,20.40
2022-08-20T00:06:17.163Z,20.30
2022-08-20T00:08:45.223Z,20.30
2022-08-20T00:11:17.210Z,20.40
2022-08-20T00:13:55.935Z,20.30
2022-08-20T00:16:25.663Z,20.30
2022-08-20T00:18:52.768Z,20.30
2022-08-20T00:21:20.841Z,20.30
2022-08-20T00:23:50.064Z,20.20
2022-08-20T00:26:18.205Z,20.20
2022-08-20T00:28:45.455Z,20.20
2022-08-20T00:31:14.997Z,20.20
2022-08-20T00:33:41.941Z,20.20
2022-08-20T00:36:10.921Z,20.20
2022-08-20T00:38:40.402Z,20.30
2022-08-20T00:41:09.364Z,20.40
2022-08-20T00:43:49.956Z,20.30
2022-08-20T00:46:28.144Z,20.40
2022-08-20T00:49:02.284Z,20.40
2022-08-20T00:51:43.832Z,20.40
2022-08-20T00:54:34.975Z,20.30
2022-08-20T00:57:08.530Z,20.40
2022-08-20T00:59:37.428Z,20.40
2022-08-20T01:02:15.351Z,20.30
2022-08-20T01:04:47.172Z,20.30
2022-08-20T01:07:14.053Z,20.20
2022-08-20T01:09:57.662Z,20.20
2022-08-20T01:12:27.237Z,20.20
2022-08-20T01:14:55.216Z,20.40
2022-08-20T01:17:25.981Z,20.40
2022-08-20T01:20:06.221Z,20.40
2022-08-20T01:23:19.863Z,20.30
2022-08-20T01:25:52.541Z,20.20
2022-08-20T01:28:25.220Z,20.30
2022-08-20T01:30:53.426Z,20.30
2022-08-20T01:33:22.894Z,20.20
2022-08-20T01:35:50.475Z,20.20
2022-08-20T01:38:18.119Z,20.30
2022-08-20T01:40:55.031Z,20.30
2022-08-20T01:43:22.134Z,20.40
2022-08-20T01:45:51.655Z,20.40
2022-08-20T01:48:21.060Z,20.40
2022-08-20T01:50:56.844Z,20.20
2022-08-20T01:53:37.499Z,20.10
2022-08-20T01:56:07.534Z,20.10
2022-08-20T01:58:36.370Z,20.10
2022-08-20T02:01:04.218Z,20.20
2022-08-20T02:03:36.545Z,20.10
2022-08-20T02:06:05.403Z,20.20
2022-08-20T02:08:33.570Z,20.00
2022-08-20T02:11:00.406Z,20.10
2022-08-20T02:13:27.333Z,20.10
2022-08-20T02:15:54.387Z,20.10
2022-08-20T02:18:22.523Z,20.10
2022-08-20T02:20:51.229Z,20.00
2022-08-20T02:23:18.835Z,20.00
2022-08-20T02:25:47.734Z,20.00
2022-08-20T02:28:17.603Z,20.10
2022-08-20T02:30:47.333Z,20.00
2022-08-20T02:33:16.329Z,20.10
2022-08-20T02:35:46.409Z,20.00
2022-08-20T02:38:15.609Z,20.10
2022-08-20T02:40:44.286Z,20.00
2022-08-20T02:43:12.246Z,19.90
2022-08-20T02:45:43.718Z,19.80
2022-08-20T02:48:15.481Z,19.90
2022-08-20T02:50:44.309Z,20.00
2022-08-20T02:53:11.826Z,19.90
2022-08-20T02:55:38.844Z,19.80
2022-08-20T02:58:05.723Z,19.80
2022-08-20T03:00:38.107Z,19.80
2022-08-20T03:03:09.088Z,19.70
2022-08-20T03:05:39.583Z,19.60
2022-08-20T03:08:09.217Z,19.50
2022-08-20T03:10:38.097Z,19.70
2022-08-20T03:13:06.491Z,19.70
2022-08-20T03:15:34.552Z,19.60
2022-08-20T03:18:01.592Z,19.50
2022-08-20T03:20:29.871Z,19.50
2022-08-20T03:22:57.020Z,19.60
2022-08-20T03:25:24.362Z,19.80
2022-08-20T03:27:54.190Z,19.60
2022-08-20T03:30:22.722Z,19.60
2022-08-20T03:32:49.635Z,19.70
2022-08-20T03:35:17.995Z,19.50
2022-08-20T03:37:47.969Z,19.60
2022-08-20T03:40:19.370Z,19.60
2022-08-20T03:42:46.305Z,19.60
2022-08-20T03:45:18.417Z,19.40
2022-08-20T03:47:47.601Z,19.50
2022-08-20T03:50:23.644Z,19.40
2022-08-20T03:52:54.389Z,19.30
2022-08-20T03:55:23.308Z,19.30
2022-08-20T03:57:56.449Z,19.20
2022-08-20T04:00:29.934Z,19.30
2022-08-20T04:02:57.233Z,19.40
2022-08-20T04:05:25.619Z,19.50
2022-08-20T04:08:03.009Z,19.40
2022-08-20T04:10:31.497Z,19.50
2022-08-20T04:12:58.258Z,19.50
2022-08-20T04:15:26.437Z,19.50
2022-08-20T04:17:54.276Z,19.50
2022-08-20T04:20:23.930Z,19.40
2022-08-20T04:22:58.725Z,19.50
2022-08-20T04:25:29.813Z,19.50
2022-08-20T04:28:00.606Z,19.40
2022-08-20T04:30:28.032Z,19.50
2022-08-20T04:32:56.151Z,19.50
2022-08-20T04:35:24.667Z,19.40
2022-08-20T04:38:03.025Z,19.40
2022-08-20T04:40:49.114Z,19.40
2022-08-20T04:43:15.930Z,19.40
2022-08-20T04:45:43.382Z,19.60
2022-08-20T04:48:14.793Z,19.60
2022-08-20T04:50:45.036Z,19.60
2022-08-20T04:53:13.730Z,19.60
2022-08-20T04:55:43.058Z,19.50
2022-08-20T04:58:30.301Z,19.60
2022-08-20T05:01:01.189Z,19.70
2022-08-20T05:03:28.818Z,19.70
2022-08-20T05:05:56.971Z,19.70
2022-08-20T05:08:25.629Z,19.60
2022-08-20T05:10:56.105Z,19.60
2022-08-20T05:13:41.330Z,19.60
2022-08-20T05:16:08.775Z,19.70
2022-08-20T05:18:35.759Z,19.70
2022-08-20T05:21:06.119Z,19.60
2022-08-20T05:23:35.098Z,19.50
2022-08-20T05:26:07.398Z,19.50
2022-08-20T05:28:36.864Z,19.50
2022-08-20T05:31:18.195Z,19.40
2022-08-20T05:33:45.149Z,19.30
2022-08-20T05:36:12.347Z,19.30
2022-08-20T05:38:43.462Z,19.30
2022-08-20T05:41:27.753Z,19.30
2022-08-20T05:44:02.666Z,19.30
2022-08-20T05:46:31.629Z,19.30
2022-08-20T05:48:59.945Z,19.30
2022-08-20T05:51:28.339Z,19.40
2022-08-20T05:53:57.461Z,19.30
2022-08-20T05:56:27.219Z,19.40
2022-08-20T05:58:54.526Z,19.30
2022-08-20T06:01:21.725Z,19.30
2022-08-20T06:04:07.655Z,19.20
2022-08-20T06:06:44.538Z,19.20
2022-08-20T06:09:12.796Z,19.20
2022-08-20T06:11:39.743Z,19.10
2022-08-20T06:14:06.593Z,19.10
2022-08-20T06:16:34.041Z,19.00
2022-08-20T06:19:02.699Z,19.00
2022-08-20T06:21:30.015Z,19.00
2022-08-20T06:23:59.158Z,19.10
2022-08-20T06:26:30.889Z,19.00
2022-08-20T06:28:59.698Z,19.00
2022-08-20T06:31:27.559Z,19.20
2022-08-20T06:33:54.619Z,19.20
2022-08-20T06:36:21.584Z,19.30
2022-08-20T06:38:48.722Z,19.30
2022-08-20T06:41:16.599Z,19.10
2022-08-20T06:43:43.381Z,19.10
2022-08-20T06:46:10.849Z,19.00
2022-08-20T06:48:38.282Z,19.00
2022-08-20T06:51:06.831Z,19.00
2022-08-20T06:53:33.955Z,19.20
2022-08-20T06:56:00.930Z,19.30
2022-08-20T06:58:37.175Z,19.10
2022-08-20T07:01:09.569Z,19.00
2022-08-20T07:03:42.353Z,19.00
2022-08-20T07:06:21.229Z,19.10
2022-08-20T07:08:48.113Z,19.20
2022-08-20T07:11:14.968Z,19.10
2022-08-20T07:13:42.244Z,19.20
2022-08-20T07:16:09.594Z,19.30
2022-08-20T07:18:36.419Z,19.30
2022-08-20T07:21:03.468Z,19.30
2022-08-20T07:23:31.754Z,19.40
2022-08-20T07:25:58.900Z,19.30
2022-08-20T07:28:31.889Z,19.30
2022-08-20T07:31:17.301Z,19.40
2022-08-20T07:33:47.271Z,19.40
2022-08-20T07:36:17.745Z,19.70
2022-08-20T07:38:48.837Z,19.90
2022-08-20T07:41:15.620Z,19.90
2022-08-20T07:43:45.688Z,19.90
2022-08-20T07:46:17.856Z,20.00
2022-08-20T07:48:50.410Z,20.10
2022-08-20T07:51:19.434Z,20.20
2022-08-20T07:53:47.616Z,20.10
2022-08-20T07:56:19.298Z,19.90
2022-08-20T07:58:50.634Z,19.90
2022-08-20T08:01:24.485Z,19.90
2022-08-20T08:03:51.904Z,20.00
2022-08-20T08:06:29.230Z,19.90
2022-08-20T08:09:03.564Z,20.10
2022-08-20T08:11:33.204Z,20.30
2022-08-20T08:14:00.300Z,20.60
2022-08-20T08:16:28.580Z,20.70
2022-08-20T08:18:56.859Z,20.80
2022-08-20T08:21:24.524Z,20.80
2022-08-20T08:23:51.370Z,20.90
2022-08-20T08:26:19.039Z,20.70
2022-08-20T08:28:46.698Z,21.20
2022-08-20T08:31:14.919Z,21.30
2022-08-20T08:33:42.358Z,21.70
2022-08-20T08:36:15.731Z,21.50
2022-08-20T08:38:44.751Z,21.70
2022-08-20T08:41:32.603Z,21.80
2022-08-20T08:44:09.463Z,21.90
2022-08-20T08:46:43.218Z,22.20
2022-08-20T08:49:21.699Z,22.00
2022-08-20T08:51:58.793Z,22.00
2022-08-20T08:54:31.304Z,21.80
2022-08-20T08:56:59.636Z,21.60
2022-08-20T08:59:46.135Z,21.30
2022-08-20T09:02:22.662Z,21.20
2022-08-20T09:04:51.561Z,21.70
2022-08-20T09:07:18.534Z,21.80
2022-08-20T09:09:46.904Z,22.00
2022-08-20T09:12:20.152Z,22.60
2022-08-20T09:14:48.310Z,22.60
2022-08-20T09:17:16.212Z,22.70
2022-08-20T09:19:43.239Z,22.40
2022-08-20T09:22:12.149Z,22.30
2022-08-20T09:24:39.175Z,23.20
2022-08-20T09:27:06.204Z,24.20
2022-08-20T09:29:33.230Z,23.50
2022-08-20T09:32:21.460Z,23.80
2022-08-20T09:34:52.627Z,24.00
2022-08-20T09:37:19.559Z,24.00
2022-08-20T09:39:47.159Z,24.90
2022-08-20T09:42:18.638Z,25.20
2022-08-20T09:44:45.551Z,25.20
2022-08-20T09:47:12.699Z,24.80
2022-08-20T09:49:40.567Z,25.30
2022-08-20T09:52:11.175Z,24.50
2022-08-20T09:54:46.295Z,24.50
2022-08-20T09:57:15.156Z,24.30
2022-08-20T09:59:42.631Z,24.20
2022-08-20T10:02:09.609Z,24.80
2022-08-20T10:04:36.408Z,24.70
2022-08-20T10:07:07.862Z,24.60
2022-08-20T10:09:36.337Z,24.30
2022-08-20T10:12:04.689Z,24.40
2022-08-20T10:14:31.853Z,24.20
2022-08-20T10:17:00.654Z,24.20
2022-08-20T10:19:28.115Z,24.20
2022-08-20T10:21:55.032Z,24.40
2022-08-20T10:24:22.445Z,24.40
2022-08-20T10:26:49.853Z,24.10
2022-08-20T10:29:17.128Z,24.00
2022-08-20T10:31:44.049Z,24.10
2022-08-20T10:34:10.783Z,24.20
2022-08-20T10:36:37.796Z,24.10
2022-08-20T10:39:04.819Z,23.80
2022-08-20T10:41:31.867Z,23.70
2022-08-20T10:43:58.704Z,23.70
2022-08-20T10:46:25.516Z,23.90
2022-08-20T10:48:52.398Z,24.00
2022-08-20T10:51:19.325Z,23.80
2022-08-20T10:53:46.088Z,23.80
2022-08-20T10:56:15.654Z,23.60
2022-08-20T10:58:42.698Z,24.00
2022-08-20T11:01:11.482Z,24.20
2022-08-20T11:03:38.359Z,24.10
2022-08-20T11:06:05.464Z,24.00
2022-08-20T11:08:33.726Z,24.10
2022-08-20T11:11:01.876Z,24.00
2022-08-20T11:13:28.793Z,24.40
2022-08-20T11:15:55.673Z,25.10
2022-08-20T11:18:22.459Z,24.80
2022-08-20T11:20:49.231Z,25.10
2022-08-20T11:23:16.070Z,26.00
2022-08-20T11:25:42.841Z,26.50
2022-08-20T11:28:09.685Z,26.60
2022-08-20T11:30:37.649Z,25.70
2022-08-20T11:33:04.999Z,25.80
2022-08-20T11:35:48.415Z,25.20
2022-08-20T11:38:17.009Z,24.80
2022-08-20T11:40:43.983Z,24.60
2022-08-20T11:43:16.426Z,25.40
2022-08-20T11:45:46.358Z,26.30
2022-08-20T11:48:13.440Z,26.90
2022-08-20T11:50:41.534Z,27.10
2022-08-20T11:53:08.689Z,27.30
2022-08-20T11:55:36.201Z,27.40
2022-08-20T11:58:03.776Z,27.80
2022-08-20T12:00:33.879Z,29.10
2022-08-20T12:03:02.075Z,30.10
2022-08-20T12:05:30.035Z,29.40
2022-08-20T12:07:57.858Z,28.90
2022-08-20T12:10:26.777Z,29.60
2022-08-20T12:12:54.243Z,29.20
2022-08-20T12:15:21.312Z,28.90
2022-08-20T12:17:48.652Z,28.60
2022-08-20T12:20:16.127Z,28.40
2022-08-20T12:22:44.526Z,28.70
2022-08-20T12:25:12.150Z,27.90
2022-08-20T12:27:39.717Z,27.00
2022-08-20T12:30:19.903Z,26.20
2022-08-20T12:32:46.924Z,26.30
2022-08-20T12:35:15.601Z,27.10
2022-08-20T12:37:43.777Z,27.20
2022-08-20T12:40:13.799Z,26.50
2022-08-20T12:42:40.783Z,25.60
2022-08-20T12:45:08.241Z,25.20
2022-08-20T12:47:40.916Z,26.30
2022-08-20T12:50:16.405Z,27.30
2022-08-20T12:52:43.322Z,26.60
2022-08-20T12:55:12.106Z,26.00
2022-08-20T12:57:51.234Z,25.70
2022-08-20T13:00:22.694Z,25.30
2022-08-20T13:02:52.682Z,25.50
2022-08-20T13:05:20.521Z,27.00
2022-08-20T13:07:48.049Z,27.80
2022-08-20T13:10:18.963Z,27.80
2022-08-20T13:12:45.748Z,27.00
2022-08-20T13:15:13.302Z,26.40
2022-08-20T13:17:40.168Z,26.90
2022-08-20T13:20:10.416Z,26.70
2022-08-20T13:22:37.521Z,26.00
2022-08-20T13:25:06.464Z,26.10
2022-08-20T13:27:33.389Z,25.80
2022-08-20T13:30:00.160Z,26.60
2022-08-20T13:32:27.252Z,26.40
2022-08-20T13:34:54.056Z,26.20
2022-08-20T13:37:26.760Z,26.10
2022-08-20T13:39:55.127Z,26.40
2022-08-20T13:42:22.440Z,27.30
2022-08-20T13:44:49.716Z,27.20
2022-08-20T13:47:25.765Z,27.50
2022-08-20T13:50:15.221Z,27.30
2022-08-20T13:52:42.710Z,27.00
2022-08-20T13:55:12.111Z,27.40
2022-08-20T13:57:40.573Z,27.10
2022-08-20T14:00:12.459Z,26.90
2022-08-20T14:02:40.167Z,26.50
2022-08-20T14:05:07.386Z,26.00
2022-08-20T14:07:34.129Z,26.30
2022-08-20T14:10:08.563Z,26.00
2022-08-20T14:12:35.387Z,25.60
2022-08-20T14:15:02.312Z,25.30
2022-08-20T14:17:43.332Z,25.10
2022-08-20T14:20:16.463Z,24.90
2022-08-20T14:22:44.795Z,24.70
2022-08-20T14:25:14.640Z,24.70
2022-08-20T14:27:42.549Z,25.70
2022-08-20T14:30:12.747Z,25.60
2022-08-20T14:32:40.115Z,25.90
2022-08-20T14:35:07.790Z,25.30
2022-08-20T14:37:38.188Z,25.10
2022-08-20T14:40:08.748Z,25.00
2022-08-20T14:42:36.106Z,24.80
2022-08-20T14:45:06.363Z,24.60
2022-08-20T14:47:42.486Z,24.30
2022-08-20T14:50:16.826Z,24.80
2022-08-20T14:52:44.197Z,25.00
2022-08-20T14:55:15.556Z,25.60
2022-08-20T14:57:43.087Z,25.60
2022-08-20T15:00:12.912Z,25.10
2022-08-20T15:02:40.370Z,24.90
2022-08-20T15:05:08.231Z,24.70
2022-08-20T15:07:39.609Z,24.80
2022-08-20T15:10:10.569Z,24.40
2022-08-20T15:12:37.626Z,24.20
2022-08-20T15:15:15.453Z,24.00
2022-08-20T15:18:03.509Z,23.70
2022-08-20T15:20:32.295Z,23.80
2022-08-20T15:22:59.953Z,23.70
2022-08-20T15:25:36.905Z,23.90
2022-08-20T15:28:08.258Z,23.90
2022-08-20T15:30:36.502Z,23.80
2022-08-20T15:33:03.573Z,23.80
2022-08-20T15:35:30.693Z,23.80
2022-08-20T15:37:59.102Z,23.70
2022-08-20T15:40:29.204Z,23.70
2022-08-20T15:43:00.815Z,23.60
2022-08-20T15:45:27.821Z,23.60
2022-08-20T15:48:13.581Z,23.70
2022-08-20T15:51:11.798Z,23.60
2022-08-20T15:54:05.240Z,23.50
2022-08-20T15:57:02.028Z,23.50
2022-08-20T15:59:43.742Z,23.70
2022-08-20T16:02:22.567Z,23.70
2022-08-20T16:05:03.710Z,23.60
2022-08-20T16:07:49.443Z,23.70
2022-08-20T16:10:25.052Z,23.40
2022-08-20T16:12:56.621Z,23.30
2022-08-20T16:15:47.574Z,23.20
2022-08-20T16:18:26.112Z,23.40
2022-08-20T16:20:55.359Z,23.30
2022-08-20T16:23:33.366Z,23.20
2022-08-20T16:26:36.632Z,23.30
2022-08-20T16:29:09.997Z,23.00
2022-08-20T16:31:45.386Z,23.00
2022-08-20T16:34:33.440Z,23.00
2022-08-20T16:37:19.897Z,22.90
2022-08-20T16:39:57.693Z,22.90
2022-08-20T16:42:28.327Z,22.90
2022-08-20T16:44:56.688Z,22.70
2022-08-20T16:47:36.143Z,22.70
2022-08-20T16:50:24.671Z,22.80
2022-08-20T16:52:52.239Z,22.90
2022-08-20T16:55:24.114Z,22.80
2022-08-20T16:57:52.928Z,22.80
2022-08-20T17:00:39.040Z,22.90
2022-08-20T17:03:38.556Z,22.90
2022-08-20T17:06:39.855Z,22.90
2022-08-20T17:09:14.454Z,22.80
2022-08-20T17:12:06.920Z,22.70
2022-08-20T17:14:48.460Z,22.70
2022-08-20T17:17:27.431Z,22.50
2022-08-20T17:19:59.887Z,22.60
2022-08-20T17:22:29.539Z,22.80
2022-08-20T17:24:57.579Z,22.80
2022-08-20T17:27:39.193Z,22.70
2022-08-20T17:30:36.829Z,22.70
2022-08-20T17:33:07.452Z,22.60
2022-08-20T17:35:43.023Z,22.50
2022-08-20T17:38:26.641Z,22.40
2022-08-20T17:41:00.132Z,22.30
2022-08-20T17:43:33.124Z,22.30
2022-08-20T17:46:06.534Z,22.40
2022-08-20T17:48:47.619Z,22.30
2022-08-20T17:51:26.731Z,22.20
2022-08-20T17:53:57.688Z,22.30
2022-08-20T17:56:31.843Z,22.30
2022-08-20T17:59:11.317Z,22.40
2022-08-20T18:01:38.597Z,22.40
2022-08-20T18:04:05.520Z,22.20
2022-08-20T18:06:52.973Z,21.90
2022-08-20T18:09:55.997Z,21.90
2022-08-20T18:12:35.026Z,22.00
2022-08-20T18:15:07.960Z,21.90
2022-08-20T18:17:52.515Z,22.00
2022-08-20T18:20:44.100Z,22.00
2022-08-20T18:23:12.651Z,21.90
2022-08-20T18:25:42.090Z,21.80
2022-08-20T18:28:27.650Z,21.90
2022-08-20T18:30:58.195Z,21.90
2022-08-20T18:33:31.572Z,21.80
2022-08-20T18:36:19.662Z,21.70
2022-08-20T18:38:57.422Z,21.60
2022-08-20T18:41:34.737Z,21.60
2022-08-20T18:44:13.612Z,21.70
2022-08-20T18:46:59.141Z,21.60
2022-08-20T18:49:39.244Z,21.40
2022-08-20T18:52:22.981Z,21.40
2022-08-20T18:54:52.715Z,21.40
2022-08-20T18:57:22.342Z,21.30
2022-08-20T19:00:20.730Z,21.40
2022-08-20T19:02:57.548Z,21.20
2022-08-20T19:06:02.469Z,21.30
2022-08-20T19:08:42.974Z,21.40
2022-08-20T19:11:12.503Z,21.40
2022-08-20T19:13:58.276Z,21.20
2022-08-20T19:16:46.132Z,21.10
2022-08-20T19:19:22.164Z,21.10
2022-08-20T19:21:49.613Z,21.20
2022-08-20T19:24:23.587Z,21.30
2022-08-20T19:27:05.938Z,21.30
2022-08-20T19:29:49.504Z,21.20
2022-08-20T19:32:34.359Z,21.20
2022-08-20T19:35:07.134Z,21.10
2022-08-20T19:37:50.859Z,21.00
2022-08-20T19:40:33.141Z,21.00
2022-08-20T19:43:12.288Z,21.00
2022-08-20T19:45:44.050Z,20.80
2022-08-20T19:48:16.914Z,20.70
2022-08-20T19:51:22.503Z,20.60
2022-08-20T19:53:49.757Z,20.60
2022-08-20T19:56:21.035Z,20.50
2022-08-20T19:59:09.067Z,20.50
2022-08-20T20:01:36.631Z,20.50
2022-08-20T20:04:14.471Z,20.30
2022-08-20T20:06:45.936Z,20.20
2022-08-20T20:09:19.486Z,20.10
2022-08-20T20:11:58.404Z,20.10
2022-08-20T20:14:34.339Z,20.00
2022-08-20T20:17:04.837Z,19.90
2022-08-20T20:19:31.935Z,20.00
2022-08-20T20:22:07.608Z,19.80
2022-08-20T20:24:50.729Z,19.80
2022-08-20T20:27:26.113Z,19.70
2022-08-20T20:30:00.437Z,19.70
2022-08-20T20:32:28.610Z,19.70
2022-08-20T20:35:00.186Z,19.80
2022-08-20T20:37:50.762Z,19.70
2022-08-20T20:40:45.966Z,19.60
2022-08-20T20:43:24.863Z,19.50
2022-08-20T20:46:00.780Z,19.40
2022-08-20T20:48:33.736Z,19.50
2022-08-20T20:51:11.736Z,19.50
2022-08-20T20:53:51.165Z,19.50
2022-08-20T20:56:29.399Z,19.40
2022-08-20T20:58:56.929Z,19.30
2022-08-20T21:01:41.402Z,19.30
2022-08-20T21:04:11.080Z,19.40
2022-08-20T21:06:38.766Z,19.50
2022-08-20T21:09:05.655Z,19.50
2022-08-20T21:11:32.436Z,19.40
2022-08-20T21:13:59.263Z,19.40
2022-08-20T21:16:26.034Z,19.20
2022-08-20T21:18:52.752Z,19.20
2022-08-20T21:21:19.553Z,19.20
2022-08-20T21:23:46.405Z,19.00
2022-08-20T21:26:13.330Z,19.00
2022-08-20T21:28:40.282Z,19.00
2022-08-20T21:31:07.221Z,19.00
2022-08-20T21:33:34.074Z,18.90
2022-08-20T21:36:00.860Z,19.00
2022-08-20T21:38:28.258Z,18.90
2022-08-20T21:40:55.112Z,18.90
2022-08-20T21:43:25.436Z,18.90
2022-08-20T21:45:52.526Z,18.90
2022-08-20T21:48:19.260Z,18.90
2022-08-20T21:50:46.038Z,18.90
2022-08-20T21:53:13.409Z,18.80
2022-08-20T21:55:40.857Z,18.80
2022-08-20T21:58:08.631Z,18.80
2022-08-20T22:00:52.756Z,18.80
2022-08-20T22:03:22.804Z,18.60
2022-08-20T22:05:50.570Z,18.70
2022-08-20T22:08:17.890Z,18.70
2022-08-20T22:10:45.456Z,18.60
2022-08-20T22:13:12.973Z,18.60
2022-08-20T22:15:40.508Z,18.60
2022-08-20T22:18:07.571Z,18.60
2022-08-20T22:20:34.472Z,18.50
2022-08-20T22:23:03.711Z,18.50
2022-08-20T22:25:30.763Z,18.50
2022-08-20T22:27:57.503Z,18.50
2022-08-20T22:30:24.884Z,18.40
2022-08-20T22:32:52.581Z,18.30
2022-08-20T22:35:19.852Z,18.40
2022-08-20T22:37:47.050Z,18.30
2022-08-20T22:40:13.991Z,18.30
2022-08-20T22:42:40.922Z,18.30
2022-08-20T22:45:11.602Z,18.20
2022-08-20T22:47:43.191Z,18.30
2022-08-20T22:50:12.188Z,18.20
2022-08-20T22:52:41.982Z,18.20
2022-08-20T22:55:09.692Z,18.20
2022-08-20T22:57:37.013Z,18.10
2022-08-20T23:00:11.836Z,18.10
2022-08-20T23:02:40.462Z,18.10
2022-08-20T23:05:11.959Z,18.10
2022-08-20T23:07:38.809Z,18.00
2022-08-20T23:10:05.969Z,18.00
2022-08-20T23:12:52.962Z,18.10
2022-08-20T23:15:19.856Z,18.10
2022-08-20T23:17:47.156Z,18.00
2022-08-20T23:20:17.307Z,17.90
2022-08-20T23:22:44.407Z,18.00
2022-08-20T23:25:12.821Z,18.00
2022-08-20T23:27:46.505Z,17.90
2022-08-20T23:30:14.861Z,17.80
2022-08-20T23:32:42.126Z,17.80
2022-08-20T23:35:09.309Z,17.80
2022-08-20T23:37:40.750Z,17.60
2022-08-20T23:40:09.261Z,17.60
2022-08-20T23:42:36.522Z,17.60
2022-08-20T23:45:05.256Z,17.70
2022-08-20T23:47:32.284Z,17.60
2022-08-20T23:49:59.167Z,17.70
2022-08-20T23:52:26.087Z,17.70
2022-08-20T23:54:52.984Z,17.70
2022-08-20T23:57:20.915Z,17.60
2022-08-20T23:59:48.299Z,17.60
